createdAt,value
2019-05-21T05:32:35.371Z,7.60
2019-05-21T05:37:43.361Z,6.70
2019-05-21T05:42:29.482Z,6.23
2019-05-21T05:47:25.339Z,6.17
2019-05-21T05:52:21.725Z,5.30
2019-05-21T05:57:17.471Z,5.20
2019-05-21T06:02:13.226Z,5.40
2019-05-21T06:07:08.972Z,5.27
2019-05-21T06:12:04.723Z,4.40
2019-05-21T06:17:00.861Z,4.17
2019-05-21T06:21:56.966Z,4.00
2019-05-21T06:26:52.952Z,3.53
2019-05-21T06:31:48.777Z,3.43
2019-05-21T06:36:46.457Z,3.53
2019-05-21T06:41:42.399Z,3.73
2019-05-21T06:46:38.129Z,3.93
2019-05-21T06:51:33.953Z,3.33
2019-05-21T06:56:29.663Z,3.53
2019-05-21T07:01:28.810Z,3.10
2019-05-21T07:06:23.007Z,2.70
2019-05-21T07:11:18.823Z,2.90
2019-05-21T07:16:14.513Z,2.70
2019-05-21T07:21:10.240Z,2.70
2019-05-21T07:26:05.923Z,2.50
2019-05-21T07:31:01.941Z,2.50
2019-05-21T07:35:57.760Z,2.30
2019-05-21T07:40:53.567Z,2.33
2019-05-21T07:45:49.567Z,2.00
2019-05-21T07:50:45.294Z,1.80
2019-05-21T07:55:41.003Z,2.07
2019-05-21T08:00:36.929Z,2.00
2019-05-21T08:05:32.643Z,1.70
2019-05-21T08:10:28.348Z,1.60
2019-05-21T08:15:24.130Z,1.60
2019-05-21T08:20:22.064Z,1.30
2019-05-21T08:25:17.770Z,1.43
2019-05-21T08:30:14.140Z,1.50
2019-05-21T08:35:09.990Z,1.40
2019-05-21T08:40:06.169Z,1.20
2019-05-21T08:45:03.897Z,0.90
2019-05-21T08:49:59.865Z,1.00
2019-05-21T08:54:56.677Z,1.00
2019-05-21T08:59:52.594Z,0.97
2019-05-21T09:04:48.737Z,0.87
2019-05-21T09:09:50.175Z,0.90
2019-05-21T09:14:42.615Z,1.23
2019-05-21T09:19:38.422Z,1.10
2019-05-21T09:24:34.127Z,1.00
2019-05-21T09:29:30.149Z,1.07
2019-05-21T09:34:25.948Z,1.10
2019-05-21T09:39:21.674Z,1.40
2019-05-21T09:44:17.439Z,1.70
2019-05-21T09:49:13.207Z,1.33
2019-05-21T09:54:09.417Z,1.60
2019-05-21T09:59:24.548Z,1.37
2019-05-21T10:04:20.373Z,1.30
2019-05-21T10:09:18.003Z,1.40
2019-05-21T10:14:13.985Z,1.57
2019-05-21T10:19:09.892Z,1.50
2019-05-21T10:24:05.615Z,1.70
2019-05-21T10:29:01.433Z,1.60
2019-05-21T10:33:57.256Z,1.43
2019-05-21T10:38:53.073Z,1.70
2019-05-21T10:43:48.888Z,1.80
2019-05-21T10:48:44.600Z,2.30
2019-05-21T10:53:40.462Z,1.70
2019-05-21T10:58:36.703Z,1.50
2019-05-21T11:03:43.756Z,1.60
2019-05-21T11:08:40.031Z,1.67
2019-05-21T11:13:35.808Z,1.50
2019-05-21T11:18:31.646Z,1.23
2019-05-21T11:23:27.364Z,1.60
2019-05-21T11:28:23.278Z,1.80
2019-05-21T11:33:19.007Z,1.40
2019-05-21T11:38:14.837Z,1.60
2019-05-21T11:43:13.342Z,1.40
2019-05-21T11:48:09.034Z,1.40
2019-05-21T11:53:04.752Z,1.50
2019-05-21T11:58:00.584Z,1.60
2019-05-21T12:02:56.313Z,1.90
2019-05-21T12:07:52.238Z,1.90
2019-05-21T12:12:48.040Z,1.90
2019-05-21T12:17:43.751Z,1.97
2019-05-21T12:22:39.800Z,2.10
2019-05-21T12:27:35.690Z,2.33
2019-05-21T12:32:31.662Z,2.00
2019-05-21T12:37:27.477Z,2.40
2019-05-21T12:42:23.372Z,2.40
2019-05-21T12:47:19.550Z,2.63
2019-05-21T12:52:15.243Z,2.30
2019-05-21T12:57:11.033Z,2.60
2019-05-21T13:02:07.370Z,3.53
2019-05-21T13:07:04.076Z,3.83
2019-05-21T13:12:00.367Z,4.40
2019-05-21T13:16:56.199Z,6.57
2019-05-21T13:21:57.832Z,5.73
2019-05-21T13:26:54.126Z,5.40
2019-05-21T13:31:49.942Z,4.60
2019-05-21T13:36:46.177Z,5.53
2019-05-21T13:41:42.017Z,6.60
2019-05-21T13:46:37.757Z,8.07
2019-05-21T13:51:33.449Z,7.63
2019-05-21T13:56:29.264Z,9.40
2019-05-21T14:01:39.998Z,9.37
2019-05-21T14:06:23.818Z,8.40
2019-05-21T14:11:19.638Z,11.00
2019-05-21T14:16:15.357Z,12.40
2019-05-21T14:21:11.182Z,13.47
2019-05-21T14:26:07.741Z,14.00
2019-05-21T14:31:03.734Z,13.53
2019-05-21T14:35:59.626Z,13.87
2019-05-21T14:40:55.344Z,14.47
2019-05-21T14:45:51.168Z,15.13
2019-05-21T14:50:46.902Z,14.87
2019-05-21T14:55:42.616Z,15.90
2019-05-21T15:00:38.612Z,14.60
2019-05-21T15:05:34.947Z,14.93
2019-05-21T15:10:46.880Z,14.27
2019-05-21T15:15:28.742Z,13.50
2019-05-21T15:20:26.807Z,13.03
2019-05-21T15:25:23.333Z,12.30
2019-05-21T15:30:19.004Z,11.77
2019-05-21T15:35:14.822Z,12.17
2019-05-21T15:40:11.343Z,11.90
2019-05-21T15:45:07.474Z,12.50
2019-05-21T15:50:03.985Z,12.07
2019-05-21T15:54:59.705Z,13.60
2019-05-21T15:59:55.432Z,14.30
2019-05-21T16:04:51.664Z,15.33
2019-05-21T16:09:47.744Z,14.40
2019-05-21T16:14:43.443Z,14.17
2019-05-21T16:19:39.289Z,14.00
2019-05-21T16:24:35.418Z,15.27
2019-05-21T16:29:31.231Z,16.23
2019-05-21T16:34:26.935Z,17.00
2019-05-21T16:39:25.096Z,18.83
2019-05-21T16:44:20.837Z,18.17
2019-05-21T16:49:16.665Z,19.27
2019-05-21T16:54:12.406Z,20.30
2019-05-21T16:59:08.214Z,19.87
2019-05-21T17:04:04.195Z,21.13
2019-05-21T17:09:00.259Z,22.90
2019-05-21T17:13:56.358Z,23.43
2019-05-21T17:18:52.398Z,23.70
2019-05-21T17:23:48.581Z,24.53
2019-05-21T17:28:44.855Z,23.73
2019-05-21T17:33:41.101Z,26.23
2019-05-21T17:38:36.950Z,23.17
2019-05-21T17:43:33.209Z,23.00
2019-05-21T17:48:28.929Z,22.30
2019-05-21T17:53:24.980Z,22.53
2019-05-21T17:58:20.798Z,21.37
2019-05-21T18:03:17.094Z,21.43
2019-05-21T18:08:16.825Z,20.23
2019-05-21T18:13:12.012Z,19.07
2019-05-21T18:18:07.934Z,18.90
2019-05-21T18:23:05.137Z,19.43
2019-05-21T18:28:01.362Z,17.87
2019-05-21T18:32:57.372Z,18.47
2019-05-21T18:37:53.534Z,18.43
2019-05-21T18:42:49.377Z,19.27
2019-05-21T18:47:45.714Z,18.37
2019-05-21T18:52:41.732Z,17.53
2019-05-21T18:57:37.885Z,18.40
2019-05-21T19:02:34.043Z,17.10
2019-05-21T19:07:29.946Z,18.30
2019-05-21T19:12:37.606Z,18.00
2019-05-21T19:17:35.193Z,16.37
2019-05-21T19:22:22.195Z,17.53
2019-05-21T19:27:18.313Z,17.83
2019-05-21T19:32:14.019Z,19.37
2019-05-21T19:37:09.734Z,21.10
2019-05-21T19:42:06.148Z,20.80
2019-05-21T19:47:02.495Z,22.90
2019-05-21T19:51:58.463Z,23.47
2019-05-21T19:56:55.420Z,23.20
2019-05-21T20:01:52.022Z,24.60
2019-05-21T20:06:47.749Z,25.00
2019-05-21T20:11:43.844Z,26.33
2019-05-21T20:16:40.064Z,24.77
2019-05-21T20:21:35.945Z,23.17
2019-05-21T20:26:34.225Z,24.57
2019-05-21T20:31:30.751Z,23.70
2019-05-21T20:36:26.929Z,21.90
2019-05-21T20:41:23.118Z,22.53
2019-05-21T20:46:20.041Z,21.97
2019-05-21T20:51:15.756Z,21.93
2019-05-21T20:56:12.354Z,20.97
2019-05-21T21:01:08.266Z,21.17
2019-05-21T21:06:04.822Z,19.17
2019-05-21T21:11:00.937Z,20.30
2019-05-21T21:15:57.366Z,20.03
2019-05-21T21:20:53.355Z,18.57
2019-05-21T21:25:49.425Z,18.40
2019-05-21T21:30:45.389Z,18.57
2019-05-21T21:35:41.325Z,17.43
2019-05-21T21:40:37.218Z,18.97
2019-05-21T21:45:33.518Z,19.60
2019-05-21T21:50:29.430Z,18.60
2019-05-21T21:55:25.444Z,18.07
2019-05-21T22:00:58.790Z,19.17
2019-05-21T22:05:55.033Z,21.00
2019-05-21T22:10:51.402Z,20.70
2019-05-21T22:15:47.113Z,20.87
2019-05-21T22:20:42.832Z,20.03
2019-05-21T22:25:38.682Z,21.23
2019-05-21T22:30:36.841Z,21.87
2019-05-21T22:35:32.755Z,21.97
2019-05-21T22:40:28.568Z,22.03
2019-05-21T22:45:24.485Z,21.80
2019-05-21T22:50:20.187Z,22.67
2019-05-21T22:55:15.956Z,24.13
2019-05-21T23:00:12.083Z,24.23
2019-05-21T23:05:08.399Z,24.97
2019-05-21T23:10:09.465Z,26.27
2019-05-21T23:15:05.871Z,26.63
2019-05-21T23:20:04.259Z,29.03
2019-05-21T23:24:59.989Z,30.57
2019-05-21T23:29:56.130Z,29.47
2019-05-21T23:34:53.568Z,31.17
2019-05-21T23:39:51.911Z,30.13
2019-05-21T23:44:47.705Z,31.13
2019-05-21T23:49:43.714Z,31.17
2019-05-21T23:54:39.418Z,32.13
2019-05-21T23:59:35.232Z,32.40
